createdAt,value
2023-11-12T00:00:04.626Z,12.80
2023-11-12T00:00:55.991Z,12.52
2023-11-12T00:01:50.682Z,11.97
2023-11-12T00:02:42.104Z,11.78
2023-11-12T00:03:33.633Z,11.27
2023-11-12T00:04:26.094Z,11.36
2023-11-12T00:05:20.596Z,11.97
2023-11-12T00:06:12.976Z,11.57
2023-11-12T00:07:04.613Z,11.64
2023-11-12T00:07:56.078Z,12.07
2023-11-12T00:08:47.713Z,11.28
2023-11-12T00:09:40.791Z,11.88
2023-11-12T00:10:34.036Z,12.14
2023-11-12T00:11:26.483Z,12.39
2023-11-12T00:12:19.705Z,12.00
2023-11-12T00:13:11.398Z,11.54
2023-11-12T00:14:03.413Z,11.51
2023-11-12T00:14:55.036Z,11.81
2023-11-12T00:15:46.843Z,11.46
2023-11-12T00:16:38.634Z,11.63
2023-11-12T00:17:30.057Z,11.72
2023-11-12T00:18:21.531Z,11.56
2023-11-12T00:19:13.124Z,10.47
2023-11-12T00:20:06.773Z,10.82
2023-11-12T00:20:58.716Z,11.68
2023-11-12T00:21:50.213Z,11.52
2023-11-12T00:22:42.154Z,11.18
2023-11-12T00:23:37.224Z,11.13
2023-11-12T00:24:29.343Z,10.88
2023-11-12T00:25:20.951Z,10.98
2023-11-12T00:26:12.375Z,10.63
2023-11-12T00:27:06.799Z,11.03
2023-11-12T00:27:58.333Z,11.48
2023-11-12T00:28:51.285Z,10.67
2023-11-12T00:29:42.685Z,10.33
2023-11-12T00:30:34.064Z,10.41
2023-11-12T00:31:25.490Z,10.90
2023-11-12T00:32:17.088Z,10.65
2023-11-12T00:33:09.779Z,10.79
2023-11-12T00:34:01.230Z,11.21
2023-11-12T00:34:53.973Z,11.22
2023-11-12T00:35:45.386Z,11.19
2023-11-12T00:36:39.612Z,11.07
2023-11-12T00:37:31.032Z,11.03
2023-11-12T00:38:22.833Z,11.16
2023-11-12T00:39:14.236Z,10.91
2023-11-12T00:40:07.423Z,11.15
2023-11-12T00:40:59.099Z,10.81
2023-11-12T00:41:50.530Z,10.87
2023-11-12T00:42:41.961Z,10.68
2023-11-12T00:43:35.137Z,11.08
2023-11-12T00:44:26.811Z,10.95
2023-11-12T00:45:18.525Z,10.83
2023-11-12T00:46:10.036Z,11.29
2023-11-12T00:47:01.503Z,11.34
2023-11-12T00:47:53.084Z,10.63
2023-11-12T00:48:45.301Z,11.09
2023-11-12T00:49:36.751Z,10.51
2023-11-12T00:50:28.239Z,10.08
2023-11-12T00:51:19.597Z,10.63
2023-11-12T00:52:10.988Z,10.43
2023-11-12T00:53:02.429Z,10.14
2023-11-12T00:53:54.149Z,10.05
2023-11-12T00:54:46.534Z,10.91
2023-11-12T00:55:37.944Z,10.79
2023-11-12T00:56:29.652Z,10.68
2023-11-12T00:57:23.373Z,10.06
2023-11-12T00:58:14.792Z,10.25
2023-11-12T00:59:06.605Z,10.24
2023-11-12T00:59:59.295Z,10.18
2023-11-12T01:00:50.704Z,10.08
2023-11-12T01:01:42.208Z,10.28
2023-11-12T01:02:33.792Z,10.08
2023-11-12T01:03:29.457Z,10.29
2023-11-12T01:04:20.895Z,10.54
2023-11-12T01:05:13.191Z,10.63
2023-11-12T01:06:05.048Z,10.88
2023-11-12T01:06:56.518Z,10.91
2023-11-12T01:07:47.965Z,10.15
2023-11-12T01:08:40.545Z,10.58
2023-11-12T01:09:32.004Z,10.23
2023-11-12T01:10:23.422Z,10.25
2023-11-12T01:11:16.290Z,10.11
2023-11-12T01:12:10.072Z,10.75
2023-11-12T01:13:01.677Z,10.39
2023-11-12T01:13:53.694Z,9.58
2023-11-12T01:14:45.199Z,10.42
2023-11-12T01:15:36.722Z,10.38
2023-11-12T01:16:28.430Z,10.69
2023-11-12T01:17:19.909Z,10.52
2023-11-12T01:18:11.425Z,9.58
2023-11-12T01:19:03.236Z,9.97
2023-11-12T01:19:54.883Z,10.38
2023-11-12T01:20:46.370Z,10.19
2023-11-12T01:21:37.895Z,9.76
2023-11-12T01:22:29.428Z,10.09
2023-11-12T01:23:20.919Z,10.08
2023-11-12T01:24:12.469Z,10.19
2023-11-12T01:25:04.111Z,10.42
2023-11-12T01:25:55.884Z,10.17
2023-11-12T01:26:47.308Z,9.75
2023-11-12T01:27:38.869Z,9.27
2023-11-12T01:28:35.234Z,9.76
2023-11-12T01:29:26.694Z,10.36
2023-11-12T01:30:18.320Z,10.37
2023-11-12T01:31:09.833Z,10.18
2023-11-12T01:32:02.016Z,10.11
2023-11-12T01:32:54.658Z,10.24
2023-11-12T01:33:46.171Z,10.90
2023-11-12T01:34:37.555Z,10.72
2023-11-12T01:35:28.924Z,10.78
2023-11-12T01:36:20.849Z,10.58
2023-11-12T01:37:12.323Z,9.88
2023-11-12T01:38:04.060Z,10.34
2023-11-12T01:38:56.567Z,10.86
2023-11-12T01:39:48.860Z,10.43
2023-11-12T01:40:42.230Z,10.84
2023-11-12T01:41:33.676Z,10.29
2023-11-12T01:42:26.303Z,10.61
2023-11-12T01:43:19.679Z,10.02
2023-11-12T01:44:11.063Z,9.95
2023-11-12T01:45:02.617Z,10.19
2023-11-12T01:45:54.500Z,9.73
2023-11-12T01:46:46.666Z,9.86
2023-11-12T01:47:40.265Z,10.11
2023-11-12T01:48:32.745Z,10.11
2023-11-12T01:49:24.457Z,10.08
2023-11-12T01:50:16.401Z,10.24
2023-11-12T01:51:08.038Z,10.30
2023-11-12T01:51:59.581Z,10.39
2023-11-12T01:52:51.080Z,10.00
2023-11-12T01:53:42.709Z,9.69
2023-11-12T01:54:38.855Z,10.36
2023-11-12T01:55:32.233Z,10.59
2023-11-12T01:56:23.894Z,10.50
2023-11-12T01:57:15.715Z,10.46
2023-11-12T01:58:10.495Z,10.18
2023-11-12T01:59:04.987Z,10.43
2023-11-12T01:59:57.125Z,10.19
2023-11-12T02:00:49.900Z,10.10
2023-11-12T02:01:43.252Z,9.88
2023-11-12T02:02:37.268Z,10.26
2023-11-12T02:03:30.887Z,10.10
2023-11-12T02:04:24.298Z,10.19
2023-11-12T02:05:16.629Z,9.46
2023-11-12T02:06:08.159Z,9.72
2023-11-12T02:07:02.842Z,9.50
2023-11-12T02:07:54.758Z,9.58
2023-11-12T02:08:46.265Z,10.14
2023-11-12T02:09:38.148Z,10.10
2023-11-12T02:10:36.418Z,9.89
2023-11-12T02:11:28.022Z,9.96
2023-11-12T02:12:19.800Z,9.23
2023-11-12T02:13:11.797Z,9.67
2023-11-12T02:14:03.260Z,9.54
2023-11-12T02:14:54.830Z,9.69
2023-11-12T02:15:48.099Z,9.98
2023-11-12T02:16:40.618Z,9.61
2023-11-12T02:17:33.103Z,10.16
2023-11-12T02:18:24.566Z,9.79
2023-11-12T02:19:26.048Z,9.27
2023-11-12T02:20:17.575Z,9.49
2023-11-12T02:21:09.082Z,9.60
2023-11-12T02:22:00.506Z,10.33
2023-11-12T02:22:52.076Z,9.92
2023-11-12T02:23:43.753Z,8.99
2023-11-12T02:24:35.792Z,9.50
2023-11-12T02:25:27.241Z,10.00
2023-11-12T02:26:19.221Z,9.81
2023-11-12T02:27:10.673Z,10.67
2023-11-12T02:28:02.412Z,9.85
2023-11-12T02:28:54.371Z,9.80
2023-11-12T02:29:52.153Z,9.63
2023-11-12T02:30:44.232Z,9.63
2023-11-12T02:31:35.715Z,9.67
2023-11-12T02:32:31.514Z,9.50
2023-11-12T02:33:28.168Z,9.88
2023-11-12T02:34:19.743Z,9.83
2023-11-12T02:35:11.283Z,9.86
2023-11-12T02:36:04.529Z,9.68
2023-11-12T02:36:56.014Z,9.45
2023-11-12T02:37:47.476Z,9.26
2023-11-12T02:38:40.426Z,9.81
2023-11-12T02:39:32.184Z,9.79
2023-11-12T02:40:24.015Z,9.45
2023-11-12T02:41:15.484Z,9.51
2023-11-12T02:42:08.801Z,9.71
2023-11-12T02:43:00.256Z,9.14
2023-11-12T02:43:51.635Z,9.37
2023-11-12T02:44:43.119Z,9.80
2023-11-12T02:45:34.534Z,9.72
2023-11-12T02:46:26.038Z,10.36
2023-11-12T02:47:18.110Z,9.50
2023-11-12T02:48:10.066Z,9.04
2023-11-12T02:49:33.240Z,9.38
2023-11-12T02:50:32.131Z,10.18
2023-11-12T02:51:23.649Z,9.18
2023-11-12T02:52:15.304Z,9.61
2023-11-12T02:53:08.308Z,10.24
2023-11-12T02:53:59.799Z,9.57
2023-11-12T02:54:51.489Z,9.54
2023-11-12T02:55:43.594Z,9.66
2023-11-12T02:56:35.710Z,9.75
2023-11-12T02:57:28.505Z,9.77
2023-11-12T02:58:19.960Z,9.84
2023-11-12T02:59:11.496Z,9.41
2023-11-12T03:00:03.387Z,9.73
2023-11-12T03:00:54.901Z,9.63
2023-11-12T03:01:46.303Z,9.83
2023-11-12T03:02:37.869Z,9.53
2023-11-12T03:03:29.413Z,9.77
2023-11-12T03:04:21.427Z,9.20
2023-11-12T03:05:15.223Z,9.63
2023-11-12T03:06:06.874Z,9.71
2023-11-12T03:06:58.400Z,9.50
2023-11-12T03:07:49.896Z,9.49
2023-11-12T03:08:41.927Z,9.26
2023-11-12T03:09:34.468Z,9.86
2023-11-12T03:10:26.192Z,10.06
2023-11-12T03:11:17.685Z,10.29
2023-11-12T03:12:09.270Z,9.90
2023-11-12T03:13:00.710Z,10.22
2023-11-12T03:13:52.894Z,9.61
2023-11-12T03:14:44.557Z,10.49
2023-11-12T03:15:36.110Z,10.07
2023-11-12T03:16:28.162Z,9.86
2023-11-12T03:17:20.586Z,10.44
2023-11-12T03:18:12.050Z,10.16
2023-11-12T03:19:04.049Z,10.38
2023-11-12T03:19:55.944Z,10.84
2023-11-12T03:20:47.528Z,10.51
2023-11-12T03:21:38.951Z,10.59
2023-11-12T03:22:32.462Z,10.14
2023-11-12T03:23:23.853Z,10.97
2023-11-12T03:24:15.303Z,10.25
2023-11-12T03:25:07.028Z,9.93
2023-11-12T03:25:58.733Z,9.66
2023-11-12T03:26:54.628Z,9.81
2023-11-12T03:27:46.100Z,9.72
2023-11-12T03:28:37.498Z,9.45
2023-11-12T03:29:29.517Z,10.46
2023-11-12T03:30:20.987Z,10.63
2023-11-12T03:31:12.422Z,10.22
2023-11-12T03:32:04.021Z,9.99
2023-11-12T03:32:55.444Z,9.99
2023-11-12T03:33:47.355Z,10.07
2023-11-12T03:34:38.823Z,9.42
2023-11-12T03:35:30.236Z,9.58
2023-11-12T03:36:22.257Z,9.92
2023-11-12T03:37:14.448Z,9.49
2023-11-12T03:38:06.108Z,8.87
2023-11-12T03:38:57.590Z,9.73
2023-11-12T03:39:50.531Z,10.13
2023-11-12T03:40:41.923Z,9.95
2023-11-12T03:41:33.412Z,10.01
2023-11-12T03:42:25.603Z,9.91
2023-11-12T03:43:17.541Z,9.84
2023-11-12T03:44:08.912Z,10.62
2023-11-12T03:45:00.639Z,10.12
2023-11-12T03:45:52.073Z,9.69
2023-11-12T03:46:43.539Z,9.96
2023-11-12T03:47:34.945Z,10.04
2023-11-12T03:48:26.430Z,9.98
2023-11-12T03:49:17.971Z,9.77
2023-11-12T03:50:09.532Z,9.86
2023-11-12T03:51:00.915Z,10.57
2023-11-12T03:51:53.217Z,10.73
2023-11-12T03:52:44.652Z,10.62
2023-11-12T03:53:36.120Z,11.27
2023-11-12T03:54:27.601Z,11.51
2023-11-12T03:55:19.057Z,11.54
2023-11-12T03:56:10.725Z,11.28
2023-11-12T03:57:02.272Z,10.67
2023-11-12T03:57:53.823Z,10.49
2023-11-12T03:58:46.047Z,11.32
2023-11-12T03:59:37.707Z,10.91
2023-11-12T04:00:29.847Z,11.12
2023-11-12T04:01:21.263Z,10.46
2023-11-12T04:02:12.745Z,10.60
2023-11-12T04:03:04.591Z,9.74
2023-11-12T04:03:56.110Z,10.19
2023-11-12T04:04:47.764Z,9.40
2023-11-12T04:05:39.174Z,9.82
2023-11-12T04:06:31.150Z,9.75
2023-11-12T04:07:24.455Z,9.64
2023-11-12T04:08:15.922Z,9.89
2023-11-12T04:09:07.715Z,9.52
2023-11-12T04:09:59.275Z,9.86
2023-11-12T04:10:50.673Z,9.34
2023-11-12T04:11:42.841Z,9.20
2023-11-12T04:12:34.433Z,9.19
2023-11-12T04:13:25.907Z,9.45
2023-11-12T04:14:17.430Z,9.50
2023-11-12T04:15:09.392Z,9.48
2023-11-12T04:16:01.228Z,8.92
2023-11-12T04:16:52.815Z,8.91
2023-11-12T04:17:44.267Z,9.25
2023-11-12T04:18:37.173Z,9.53
2023-11-12T04:19:28.570Z,9.40
2023-11-12T04:20:20.116Z,9.96
2023-11-12T04:21:11.793Z,10.20
2023-11-12T04:22:03.459Z,10.53
2023-11-12T04:22:55.026Z,10.22
2023-11-12T04:23:48.968Z,10.52
2023-11-12T04:24:40.509Z,9.41
2023-11-12T04:25:31.978Z,9.43
2023-11-12T04:26:23.722Z,9.16
2023-11-12T04:27:15.275Z,9.59
2023-11-12T04:28:06.666Z,9.97
2023-11-12T04:28:58.659Z,9.95
2023-11-12T04:29:50.171Z,10.05
2023-11-12T04:30:41.604Z,10.38
2023-11-12T04:31:33.640Z,9.65
2023-11-12T04:32:25.176Z,9.13
2023-11-12T04:33:16.613Z,9.27
2023-11-12T04:34:08.197Z,9.40
2023-11-12T04:34:59.635Z,9.20
2023-11-12T04:35:51.392Z,9.14
2023-11-12T04:36:45.317Z,8.95
2023-11-12T04:37:36.994Z,8.35
2023-11-12T04:38:28.615Z,9.16
2023-11-12T04:39:20.212Z,9.72
2023-11-12T04:40:14.188Z,9.86
2023-11-12T04:41:05.583Z,8.89
2023-11-12T04:41:56.990Z,8.87
2023-11-12T04:42:49.326Z,8.97
2023-11-12T04:43:43.434Z,8.64
2023-11-12T04:44:34.814Z,9.06
2023-11-12T04:45:26.201Z,8.94
2023-11-12T04:46:20.244Z,8.60
2023-11-12T04:47:11.733Z,8.49
2023-11-12T04:48:04.196Z,8.09
2023-11-12T04:48:55.601Z,7.72
2023-11-12T04:49:47.052Z,8.02
2023-11-12T04:50:39.631Z,7.51
2023-11-12T04:51:34.118Z,7.58
2023-11-12T04:52:25.618Z,7.83
2023-11-12T04:53:17.600Z,7.98
2023-11-12T04:54:09.080Z,8.10
2023-11-12T04:55:00.494Z,7.68
2023-11-12T04:55:51.905Z,7.58
2023-11-12T04:56:47.394Z,7.49
2023-11-12T04:57:39.481Z,7.31
2023-11-12T04:58:30.955Z,7.15
2023-11-12T04:59:23.012Z,7.11
2023-11-12T05:00:14.687Z,7.09
2023-11-12T05:01:07.552Z,7.20
2023-11-12T05:02:00.654Z,7.33
2023-11-12T05:02:52.884Z,6.85
2023-11-12T05:03:44.304Z,7.42
2023-11-12T05:04:35.856Z,7.34
2023-11-12T05:05:27.698Z,6.98
2023-11-12T05:06:19.155Z,6.95
2023-11-12T05:07:10.602Z,7.13
2023-11-12T05:08:01.960Z,7.01
2023-11-12T05:08:55.738Z,6.82
2023-11-12T05:09:47.281Z,7.11
2023-11-12T05:10:45.038Z,7.72
2023-11-12T05:11:40.547Z,7.17
2023-11-12T05:12:32.219Z,6.95
2023-11-12T05:13:23.697Z,7.19
2023-11-12T05:14:15.253Z,7.26
2023-11-12T05:15:08.106Z,6.99
2023-11-12T05:15:59.652Z,6.82
2023-11-12T05:16:51.067Z,7.17
2023-11-12T05:17:42.498Z,7.15
2023-11-12T05:18:33.971Z,6.99
2023-11-12T05:19:25.479Z,7.34
2023-11-12T05:20:17.027Z,7.65
2023-11-12T05:21:08.535Z,6.86
2023-11-12T05:22:00.062Z,7.21
2023-11-12T05:22:53.787Z,7.73
2023-11-12T05:23:45.234Z,7.27
2023-11-12T05:24:38.353Z,7.41
2023-11-12T05:25:30.075Z,6.85
2023-11-12T05:26:22.143Z,6.49
2023-11-12T05:27:13.557Z,7.29
2023-11-12T05:28:06.739Z,6.77
2023-11-12T05:28:58.144Z,6.74
2023-11-12T05:29:49.886Z,7.11
2023-11-12T05:30:41.347Z,7.46
2023-11-12T05:31:35.869Z,7.72
2023-11-12T05:32:27.450Z,8.27
2023-11-12T05:33:18.890Z,7.90
2023-11-12T05:34:11.136Z,9.29
2023-11-12T05:35:02.533Z,9.45
2023-11-12T05:35:54.308Z,9.89
2023-11-12T05:36:45.795Z,10.40
2023-11-12T05:37:37.190Z,10.40
2023-11-12T05:38:28.598Z,9.35
2023-11-12T05:39:20.087Z,10.58
2023-11-12T05:40:13.300Z,10.17
2023-11-12T05:41:04.688Z,9.95
2023-11-12T05:41:56.059Z,10.12
2023-11-12T05:42:47.821Z,10.31
2023-11-12T05:43:39.263Z,9.67
2023-11-12T05:44:30.891Z,9.35
2023-11-12T05:45:22.447Z,9.80
2023-11-12T05:46:14.569Z,9.49
2023-11-12T05:47:06.234Z,9.74
2023-11-12T05:47:58.556Z,10.32
2023-11-12T05:48:50.047Z,10.00
2023-11-12T05:49:41.440Z,9.69
2023-11-12T05:50:32.847Z,9.34
2023-11-12T05:51:24.240Z,10.02
2023-11-12T05:52:15.670Z,9.05
2023-11-12T05:53:07.117Z,10.00
2023-11-12T05:53:58.490Z,9.65
2023-11-12T05:54:49.991Z,9.63
2023-11-12T05:55:41.565Z,9.09
2023-11-12T05:56:33.375Z,8.95
2023-11-12T05:57:24.905Z,9.59
2023-11-12T05:58:16.320Z,9.24
2023-11-12T05:59:07.724Z,9.11
2023-11-12T05:59:59.118Z,8.88
2023-11-12T06:00:55.825Z,9.08
2023-11-12T06:01:47.266Z,8.52
2023-11-12T06:02:39.408Z,8.51
2023-11-12T06:03:31.092Z,8.92
2023-11-12T06:04:22.695Z,9.16
2023-11-12T06:05:14.245Z,8.66
2023-11-12T06:06:05.770Z,9.23
2023-11-12T06:06:57.187Z,9.28
2023-11-12T06:07:48.584Z,9.05
2023-11-12T06:08:39.998Z,8.61
2023-11-12T06:09:31.408Z,8.62
2023-11-12T06:10:22.927Z,8.48
2023-11-12T06:11:15.048Z,8.70
2023-11-12T06:12:08.839Z,8.26
2023-11-12T06:13:00.239Z,7.75
2023-11-12T06:13:51.736Z,7.81
2023-11-12T06:14:44.851Z,7.85
2023-11-12T06:15:37.507Z,7.96
2023-11-12T06:16:29.343Z,7.70
2023-11-12T06:17:20.774Z,7.18
2023-11-12T06:18:12.242Z,7.47
2023-11-12T06:19:03.807Z,7.81
2023-11-12T06:19:55.287Z,7.20
2023-11-12T06:20:47.130Z,7.59
2023-11-12T06:21:38.685Z,7.46
2023-11-12T06:22:30.170Z,7.09
2023-11-12T06:23:21.548Z,7.76
2023-11-12T06:24:13.002Z,6.98
2023-11-12T06:25:04.817Z,7.14
2023-11-12T06:25:56.421Z,7.45
2023-11-12T06:26:47.808Z,7.17
2023-11-12T06:27:40.915Z,7.34
2023-11-12T06:28:32.467Z,7.68
2023-11-12T06:29:24.960Z,8.03
2023-11-12T06:30:16.516Z,7.66
2023-11-12T06:31:07.906Z,7.96
2023-11-12T06:31:59.378Z,7.51
2023-11-12T06:32:51.856Z,7.71
2023-11-12T06:33:46.844Z,7.35
2023-11-12T06:34:38.516Z,7.89
2023-11-12T06:35:29.919Z,8.18
2023-11-12T06:36:21.377Z,7.70
2023-11-12T06:37:13.317Z,7.39
2023-11-12T06:38:04.687Z,7.57
2023-11-12T06:38:56.357Z,7.22
2023-11-12T06:39:47.883Z,7.37
2023-11-12T06:40:39.298Z,7.29
2023-11-12T06:41:30.697Z,7.09
2023-11-12T06:42:24.409Z,6.78
2023-11-12T06:43:17.927Z,6.91
2023-11-12T06:44:13.184Z,6.73
2023-11-12T06:45:05.304Z,6.65
2023-11-12T06:45:56.759Z,6.87
2023-11-12T06:46:48.211Z,6.48
2023-11-12T06:47:39.710Z,6.88
2023-11-12T06:48:31.205Z,6.47
2023-11-12T06:49:22.654Z,6.78
2023-11-12T06:50:14.250Z,6.79
2023-11-12T06:51:05.658Z,6.22
2023-11-12T06:51:57.177Z,6.70
2023-11-12T06:52:48.701Z,6.33
2023-11-12T06:53:40.105Z,6.46
2023-11-12T06:54:31.512Z,6.70
2023-11-12T06:55:22.981Z,6.80
2023-11-12T06:56:14.484Z,6.24
2023-11-12T06:57:06.230Z,5.99
2023-11-12T06:57:57.644Z,6.48
2023-11-12T06:58:49.504Z,6.45
2023-11-12T06:59:41.745Z,6.92
2023-11-12T07:00:34.201Z,6.34
2023-11-12T07:01:25.633Z,7.05
2023-11-12T07:02:17.142Z,6.57
2023-11-12T07:03:08.765Z,6.81
2023-11-12T07:04:01.420Z,6.51
2023-11-12T07:04:53.552Z,6.65
2023-11-12T07:05:45.209Z,6.71
2023-11-12T07:06:36.934Z,6.69
2023-11-12T07:07:28.746Z,6.29
2023-11-12T07:08:20.381Z,6.36
2023-11-12T07:09:13.639Z,6.48
2023-11-12T07:10:06.950Z,6.50
2023-11-12T07:10:59.615Z,6.05
2023-11-12T07:11:50.992Z,6.41
2023-11-12T07:12:43.768Z,7.05
2023-11-12T07:13:35.300Z,6.38
2023-11-12T07:14:27.087Z,6.23
2023-11-12T07:15:18.659Z,6.35
2023-11-12T07:16:19.795Z,6.73
2023-11-12T07:17:11.602Z,6.50
2023-11-12T07:18:03.218Z,6.64
2023-11-12T07:18:56.688Z,6.42
2023-11-12T07:19:48.163Z,6.88
2023-11-12T07:20:40.352Z,6.84
2023-11-12T07:21:32.411Z,6.56
2023-11-12T07:22:24.409Z,6.46
2023-11-12T07:23:15.803Z,6.79
2023-11-12T07:24:07.522Z,6.60
2023-11-12T07:25:01.028Z,6.85
2023-11-12T07:25:52.694Z,6.66
2023-11-12T07:26:45.529Z,6.60
2023-11-12T07:27:37.606Z,6.48
2023-11-12T07:28:28.988Z,6.48
2023-11-12T07:29:20.460Z,6.35
2023-11-12T07:30:12.481Z,6.88
2023-11-12T07:31:04.199Z,6.30
2023-11-12T07:31:55.602Z,6.68
2023-11-12T07:32:46.972Z,6.68
2023-11-12T07:33:39.610Z,7.02
2023-11-12T07:34:30.982Z,6.95
2023-11-12T07:35:22.486Z,6.47
2023-11-12T07:36:14.928Z,6.69
2023-11-12T07:37:06.355Z,6.91
2023-11-12T07:37:57.776Z,6.26
2023-11-12T07:38:49.164Z,7.08
2023-11-12T07:39:41.490Z,7.24
2023-11-12T07:40:32.951Z,7.27
2023-11-12T07:41:24.591Z,7.45
2023-11-12T07:42:16.034Z,7.17
2023-11-12T07:43:08.025Z,7.01
2023-11-12T07:43:59.540Z,6.41
2023-11-12T07:44:57.030Z,6.66
2023-11-12T07:45:54.273Z,7.47
2023-11-12T07:46:45.842Z,6.81
2023-11-12T07:47:41.911Z,7.26
2023-11-12T07:48:34.608Z,7.40
2023-11-12T07:49:26.055Z,7.49
2023-11-12T07:50:17.699Z,6.86
2023-11-12T07:51:09.193Z,7.43
2023-11-12T07:52:01.609Z,7.51
2023-11-12T07:52:53.194Z,7.15
2023-11-12T07:53:44.585Z,7.63
2023-11-12T07:54:36.206Z,8.11
2023-11-12T07:55:27.862Z,7.53
2023-11-12T07:56:19.419Z,7.83
2023-11-12T07:57:10.884Z,7.64
2023-11-12T07:58:02.524Z,8.04
2023-11-12T07:58:54.863Z,7.92
2023-11-12T07:59:46.397Z,7.83
2023-11-12T08:00:37.796Z,8.27
2023-11-12T08:01:29.197Z,8.63
2023-11-12T08:02:22.801Z,8.68
2023-11-12T08:03:14.388Z,8.91
2023-11-12T08:04:09.937Z,9.58
2023-11-12T08:05:04.582Z,8.92
2023-11-12T08:05:55.960Z,8.94
2023-11-12T08:06:49.646Z,8.19
2023-11-12T08:07:41.708Z,8.52
2023-11-12T08:08:33.175Z,8.12
2023-11-12T08:09:25.474Z,8.85
2023-11-12T08:10:19.578Z,8.94
2023-11-12T08:11:10.962Z,8.47
2023-11-12T08:12:02.660Z,9.44
2023-11-12T08:12:54.240Z,8.86
2023-11-12T08:13:45.696Z,8.62
2023-11-12T08:14:38.652Z,8.62
2023-11-12T08:15:30.114Z,8.43
2023-11-12T08:16:21.624Z,8.41
2023-11-12T08:17:13.351Z,8.23
2023-11-12T08:18:06.990Z,7.94
2023-11-12T08:18:59.760Z,7.91
2023-11-12T08:19:53.064Z,7.81
2023-11-12T08:20:44.497Z,8.03
2023-11-12T08:21:36.069Z,7.77
2023-11-12T08:22:27.884Z,7.87
2023-11-12T08:23:19.484Z,7.68
2023-11-12T08:24:11.181Z,7.78
2023-11-12T08:25:02.575Z,7.62
2023-11-12T08:25:54.234Z,7.51
2023-11-12T08:26:45.603Z,8.24
2023-11-12T08:27:37.136Z,7.89
2023-11-12T08:28:28.987Z,7.81
2023-11-12T08:29:20.389Z,7.87
2023-11-12T08:30:11.982Z,7.82
2023-11-12T08:31:03.544Z,7.82
2023-11-12T08:31:55.679Z,7.72
2023-11-12T08:32:47.127Z,7.89
2023-11-12T08:33:39.706Z,7.88
2023-11-12T08:34:32.806Z,7.68
2023-11-12T08:35:25.115Z,7.50
2023-11-12T08:36:16.561Z,7.42
2023-11-12T08:37:08.303Z,7.85
2023-11-12T08:38:00.416Z,7.64
2023-11-12T08:38:51.913Z,7.89
2023-11-12T08:39:43.335Z,7.25
2023-11-12T08:40:36.761Z,6.88
2023-11-12T08:41:28.214Z,7.45
2023-11-12T08:42:19.987Z,8.33
2023-11-12T08:43:11.528Z,8.07
2023-11-12T08:44:03.730Z,7.52
2023-11-12T08:44:55.823Z,7.17
2023-11-12T08:45:47.422Z,7.45
2023-11-12T08:46:38.863Z,6.89
2023-11-12T08:47:30.295Z,7.13
2023-11-12T08:48:21.900Z,7.91
2023-11-12T08:49:13.450Z,7.46
2023-11-12T08:50:05.583Z,8.05
2023-11-12T08:50:56.955Z,8.32
2023-11-12T08:51:48.619Z,7.26
2023-11-12T08:52:40.137Z,7.32
2023-11-12T08:53:31.642Z,7.15
2023-11-12T08:54:24.532Z,7.09
2023-11-12T08:55:15.996Z,7.23
2023-11-12T08:56:08.746Z,6.99
2023-11-12T08:57:00.157Z,6.59
2023-11-12T08:57:52.676Z,7.19
2023-11-12T08:58:44.116Z,7.13
2023-11-12T08:59:35.560Z,6.36
2023-11-12T09:00:27.017Z,6.39
2023-11-12T09:01:18.796Z,6.99
2023-11-12T09:02:10.407Z,6.82
2023-11-12T09:03:02.397Z,6.85
2023-11-12T09:03:54.531Z,7.18
2023-11-12T09:04:46.012Z,7.52
2023-11-12T09:05:37.597Z,6.81
2023-11-12T09:06:29.196Z,6.98
2023-11-12T09:07:21.286Z,6.72
2023-11-12T09:08:13.494Z,6.86
2023-11-12T09:09:06.341Z,6.55
2023-11-12T09:09:57.772Z,6.60
2023-11-12T09:10:49.237Z,6.73
2023-11-12T09:11:40.693Z,6.49
2023-11-12T09:12:32.817Z,6.78
2023-11-12T09:13:24.252Z,6.40
2023-11-12T09:14:16.436Z,6.15
2023-11-12T09:15:10.689Z,6.19
2023-11-12T09:16:02.118Z,6.22
2023-11-12T09:16:53.695Z,6.28
2023-11-12T09:17:45.195Z,6.67
2023-11-12T09:18:36.654Z,6.07
2023-11-12T09:19:28.442Z,6.27
2023-11-12T09:20:19.820Z,6.16
2023-11-12T09:21:11.268Z,6.24
2023-11-12T09:22:02.751Z,6.38
2023-11-12T09:22:54.255Z,6.20
2023-11-12T09:23:46.560Z,5.81
2023-11-12T09:24:45.312Z,6.02
2023-11-12T09:25:43.308Z,6.13
2023-11-12T09:26:34.770Z,5.87
2023-11-12T09:27:29.732Z,6.05
2023-11-12T09:28:21.189Z,6.11
2023-11-12T09:29:12.747Z,5.62
2023-11-12T09:30:04.634Z,5.44
2023-11-12T09:31:00.115Z,5.64
2023-11-12T09:31:52.177Z,5.53
2023-11-12T09:32:43.772Z,5.48
2023-11-12T09:33:35.294Z,5.42
2023-11-12T09:34:27.944Z,5.34
2023-11-12T09:35:19.809Z,5.44
2023-11-12T09:36:11.944Z,5.48
2023-11-12T09:37:04.789Z,5.83
2023-11-12T09:37:57.636Z,5.36
2023-11-12T09:38:49.083Z,5.32
2023-11-12T09:39:40.499Z,5.04
2023-11-12T09:40:32.454Z,5.04
2023-11-12T09:41:24.342Z,5.35
2023-11-12T09:42:23.679Z,4.74
2023-11-12T09:43:15.489Z,4.95
2023-11-12T09:44:08.798Z,4.84
2023-11-12T09:45:06.415Z,4.98
2023-11-12T09:45:58.734Z,5.17
2023-11-12T09:47:12.448Z,5.19
2023-11-12T09:48:36.265Z,4.94
2023-11-12T09:49:30.097Z,5.16
2023-11-12T09:50:22.420Z,4.96
2023-11-12T09:51:14.715Z,5.01
2023-11-12T09:52:06.686Z,4.95
2023-11-12T09:52:59.832Z,4.76
2023-11-12T09:53:53.905Z,4.93
2023-11-12T09:54:50.747Z,5.09
2023-11-12T09:55:44.878Z,4.73
2023-11-12T09:56:36.720Z,4.76
2023-11-12T09:57:29.699Z,5.23
2023-11-12T09:58:21.267Z,5.13
2023-11-12T09:59:12.755Z,4.79
2023-11-12T10:00:07.884Z,4.77
2023-11-12T10:01:01.080Z,4.88
2023-11-12T10:01:53.773Z,4.81
2023-11-12T10:02:48.216Z,4.98
2023-11-12T10:03:41.808Z,5.10
2023-11-12T10:04:33.588Z,5.06
2023-11-12T10:05:30.149Z,5.09
2023-11-12T10:06:23.145Z,5.32
2023-11-12T10:07:16.470Z,4.74
2023-11-12T10:08:08.115Z,4.54
2023-11-12T10:09:01.339Z,5.41
2023-11-12T10:09:55.673Z,5.16
2023-11-12T10:10:48.785Z,5.17
2023-11-12T10:11:41.984Z,5.37
2023-11-12T10:12:46.908Z,5.28
2023-11-12T10:13:38.376Z,5.16
2023-11-12T10:14:29.785Z,5.03
2023-11-12T10:15:26.256Z,4.66
2023-11-12T10:16:27.487Z,4.36
2023-11-12T10:17:19.281Z,4.74
2023-11-12T10:18:11.209Z,4.11
2023-11-12T10:19:14.930Z,4.70
2023-11-12T10:20:10.676Z,4.48
2023-11-12T10:21:09.001Z,4.86
2023-11-12T10:22:04.383Z,4.64
2023-11-12T10:22:55.986Z,4.51
2023-11-12T10:23:47.626Z,4.55
2023-11-12T10:24:44.794Z,4.74
2023-11-12T10:25:37.646Z,4.63
2023-11-12T10:26:35.799Z,4.56
2023-11-12T10:27:27.284Z,5.02
2023-11-12T10:28:18.802Z,4.84
2023-11-12T10:29:19.572Z,4.89
2023-11-12T10:30:20.766Z,4.69
2023-11-12T10:31:15.328Z,4.24
2023-11-12T10:32:07.637Z,4.70
2023-11-12T10:33:24.993Z,4.64
2023-11-12T10:34:18.120Z,4.82
2023-11-12T10:35:12.981Z,3.93
2023-11-12T10:36:09.734Z,4.53
2023-11-12T10:37:15.348Z,4.34
2023-11-12T10:38:07.451Z,4.71
2023-11-12T10:39:04.702Z,4.31
2023-11-12T10:39:58.372Z,4.80
2023-11-12T10:41:05.098Z,4.90
2023-11-12T10:41:59.386Z,4.77
2023-11-12T10:42:59.839Z,4.33
2023-11-12T10:43:59.184Z,4.21
2023-11-12T10:44:58.631Z,4.47
2023-11-12T10:46:00.223Z,5.04
2023-11-12T10:46:54.863Z,5.27
2023-11-12T10:47:49.749Z,5.09
2023-11-12T10:48:43.919Z,4.89
2023-11-12T10:49:40.579Z,4.89
2023-11-12T10:50:32.655Z,4.61
2023-11-12T10:51:26.218Z,4.48
2023-11-12T10:52:18.264Z,4.63
2023-11-12T10:53:10.784Z,4.07
2023-11-12T10:54:04.121Z,4.15
2023-11-12T10:54:59.394Z,4.62
2023-11-12T10:55:53.907Z,4.42
2023-11-12T10:56:46.250Z,4.21
2023-11-12T10:57:39.714Z,4.39
2023-11-12T10:58:32.700Z,4.37
2023-11-12T10:59:24.439Z,4.37
2023-11-12T11:00:17.732Z,4.25
2023-11-12T11:01:11.658Z,4.38
2023-11-12T11:02:04.359Z,4.14
2023-11-12T11:02:55.842Z,4.40
2023-11-12T11:03:48.406Z,4.65
2023-11-12T11:04:40.752Z,4.30
2023-11-12T11:05:33.002Z,4.60
2023-11-12T11:06:26.336Z,4.72
2023-11-12T11:07:17.933Z,4.45
2023-11-12T11:08:09.418Z,4.10
2023-11-12T11:09:00.894Z,4.17
2023-11-12T11:09:53.073Z,4.36
2023-11-12T11:10:44.822Z,4.15
2023-11-12T11:11:37.024Z,4.18
2023-11-12T11:12:28.752Z,4.36
2023-11-12T11:13:20.993Z,4.49
2023-11-12T11:14:24.663Z,4.22
2023-11-12T11:15:57.044Z,3.83
2023-11-12T11:16:49.110Z,4.68
2023-11-12T11:17:40.635Z,4.23
2023-11-12T11:18:32.231Z,4.36
2023-11-12T11:19:46.353Z,4.51
2023-11-12T11:21:06.039Z,3.93
2023-11-12T11:22:24.577Z,4.24
2023-11-12T11:23:37.897Z,3.79
2023-11-12T11:24:44.209Z,3.95
2023-11-12T11:25:36.734Z,4.22
2023-11-12T11:26:34.255Z,4.31
2023-11-12T11:27:27.740Z,3.97
2023-11-12T11:28:20.761Z,3.98
2023-11-12T11:29:14.549Z,3.85
2023-11-12T11:30:14.025Z,4.34
2023-11-12T11:31:14.680Z,4.08
2023-11-12T11:32:08.885Z,4.30
2023-11-12T11:33:03.550Z,4.15
2023-11-12T11:33:55.476Z,4.48
2023-11-12T11:34:48.686Z,4.26
2023-11-12T11:35:40.332Z,4.49
2023-11-12T11:36:32.907Z,4.44